Time;durP1;ratioP1;P1;durP2;ratioP2;P2;SDS_P1;SDS_P2;PMS_P1;PMS_P2;Temp;Humidity;BMP_temperature;BMP_pressure;BME280_temperature;BME280_humidity;BME280_pressure;Samples;Min_cycle;Max_cycle;Signal;HPM_P1;HPM_P2
2022/03/07 00:02:48;;;;;;;;;0.00;0.00;;;;;;;;2;261079105;261079105;-76
2022/03/07 00:12:15;;;;;;;;;0.00;0.00;;;;;;;;2;288087376;288087376;-76
2022/03/07 00:20:31;;;;;;;;;0.00;0.00;;;;;;;;2;261076771;261076771;-75
2022/03/07 00:29:59;;;;;;;;;0.00;0.00;;;;;;;;2;288085944;288085944;-75
2022/03/07 00:38:14;;;;;;;;;0.00;0.00;;;;;;;;2;261076873;261076873;-76
2022/03/07 00:47:42;;;;;;;;;0.00;0.00;;;;;;;;2;288084103;288084103;-75
2022/03/07 00:55:57;;;;;;;;;0.00;0.00;;;;;;;;2;261076191;261076191;-75
2022/03/07 01:05:25;;;;;;;;;0.00;0.00;;;;;;;;2;288083091;288083091;-75
2022/03/07 01:13:40;;;;;;;;;0.00;0.00;;;;;;;;2;261078922;261078922;-75
2022/03/07 01:23:08;;;;;;;;;0.00;0.00;;;;;;;;2;288084344;288084344;-75
2022/03/07 01:31:23;;;;;;;;;0.00;0.00;;;;;;;;2;261078010;261078010;-75
2022/03/07 01:40:51;;;;;;;;;0.00;0.00;;;;;;;;2;288083738;288083738;-75
2022/03/07 01:49:06;;;;;;;;;0.00;0.00;;;;;;;;2;261077108;261077108;-75
2022/03/07 01:58:34;;;;;;;;;0.00;0.00;;;;;;;;2;288082974;288082974;-75
2022/03/07 02:06:50;;;;;;;;;0.00;0.00;;;;;;;;2;261077769;261077769;-75
2022/03/07 02:16:18;;;;;;;;;0.00;0.00;;;;;;;;2;288081981;288081981;-75
2022/03/07 02:24:33;;;;;;;;;0.00;0.00;;;;;;;;2;261082790;261082790;-75
2022/03/07 02:34:01;;;;;;;;;0.00;0.00;;;;;;;;2;288082895;288082895;-76
2022/03/07 02:42:16;;;;;;;;;0.00;0.00;;;;;;;;2;261080999;261080999;-75
2022/03/07 02:51:44;;;;;;;;;0.00;0.00;;;;;;;;2;288083257;288083257;-76
2022/03/07 02:59:59;;;;;;;;;0.00;0.00;;;;;;;;2;261076558;261076558;-75
2022/03/07 03:09:27;;;;;;;;;0.00;0.00;;;;;;;;2;288083957;288083957;-75
2022/03/07 03:17:43;;;;;;;;;0.00;0.00;;;;;;;;2;261075512;261075512;-76
2022/03/07 03:27:10;;;;;;;;;0.00;0.00;;;;;;;;2;288084368;288084368;-76
2022/03/07 03:35:26;;;;;;;;;0.00;0.00;;;;;;;;2;261073995;261073995;-75
2022/03/07 03:44:54;;;;;;;;;0.00;0.00;;;;;;;;2;288083201;288083201;-75
2022/03/07 03:53:09;;;;;;;;;0.00;0.00;;;;;;;;2;261079776;261079776;-75
2022/03/07 04:02:37;;;;;;;;;0.00;0.00;;;;;;;;2;288083959;288083959;-75
2022/03/07 04:10:52;;;;;;;;;0.00;0.00;;;;;;;;2;261076323;261076323;-75
2022/03/07 04:20:19;;;;;;;;;0.00;0.00;;;;;;;;2;288086429;288086429;-75
2022/03/07 04:28:35;;;;;;;;;0.00;0.00;;;;;;;;2;261076225;261076225;-75
2022/03/07 04:38:02;;;;;;;;;0.00;0.00;;;;;;;;2;288085374;288085374;-75
2022/03/07 04:46:18;;;;;;;;;0.00;0.00;;;;;;;;2;261078511;261078511;-75
2022/03/07 04:55:47;;;;;;;;;0.00;0.00;;;;;;;;2;288087073;288087073;-75
2022/03/07 05:04:02;;;;;;;;;0.00;0.00;;;;;;;;2;261075495;261075495;-75
2022/03/07 05:13:30;;;;;;;;;0.00;0.00;;;;;;;;2;288084247;288084247;-75
2022/03/07 05:21:46;;;;;;;;;0.00;0.00;;;;;;;;2;261077841;261077841;-75
2022/03/07 05:31:13;;;;;;;;;0.00;0.00;;;;;;;;2;288081796;288081796;-75
2022/03/07 05:39:29;;;;;;;;;0.00;0.00;;;;;;;;2;261078525;261078525;-75
2022/03/07 05:48:57;;;;;;;;;0.00;0.00;;;;;;;;2;288087220;288087220;-75
2022/03/07 05:57:13;;;;;;;;;0.00;0.00;;;;;;;;2;261075589;261075589;-75
2022/03/07 06:06:41;;;;;;;;;0.00;0.00;;;;;;;;2;288084617;288084617;-74
2022/03/07 06:14:56;;;;;;;;;0.00;0.00;;;;;;;;2;261078570;261078570;-73
2022/03/07 06:24:24;;;;;;;;;0.00;0.00;;;;;;;;2;288082339;288082339;-74
2022/03/07 06:32:39;;;;;;;;;0.00;0.00;;;;;;;;2;261079266;261079266;-76
2022/03/07 06:42:07;;;;;;;;;0.00;0.00;;;;;;;;2;288082750;288082750;-74
2022/03/07 06:50:22;;;;;;;;;0.00;0.00;;;;;;;;2;261077965;261077965;-75
2022/03/07 06:59:50;;;;;;;;;0.00;0.00;;;;;;;;2;288083142;288083142;-73
2022/03/07 07:08:05;;;;;;;;;0.00;0.00;;;;;;;;2;261077480;261077480;-72
2022/03/07 07:17:33;;;;;;;;;0.00;0.00;;;;;;;;2;288084595;288084595;-75
2022/03/07 07:25:49;;;;;;;;;0.00;0.00;;;;;;;;2;261074531;261074531;-75
2022/03/07 07:35:16;;;;;;;;;0.00;0.00;;;;;;;;2;288083408;288083408;-75
2022/03/07 07:43:32;;;;;;;;;0.00;0.00;;;;;;;;2;261074831;261074831;-74
2022/03/07 07:52:59;;;;;;;;;0.00;0.00;;;;;;;;2;288087978;288087978;-75
2022/03/07 08:01:15;;;;;;;;;0.00;0.00;;;;;;;;2;261075734;261075734;-74
2022/03/07 08:10:42;;;;;;;;;0.00;0.00;;;;;;;;2;288086499;288086499;-74
2022/03/07 08:18:58;;;;;;;;;0.00;0.00;;;;;;;;2;261076217;261076217;-74
2022/03/07 08:28:26;;;;;;;;;0.00;0.00;;;;;;;;2;288081799;288081799;-75
2022/03/07 08:36:41;;;;;;;;;0.00;0.00;;;;;;;;2;261078305;261078305;-75
2022/03/07 08:46:09;;;;;;;;;0.00;0.00;;;;;;;;2;288085811;288085811;-75
2022/03/07 08:54:24;;;;;;;;;0.00;0.00;;;;;;;;2;261075723;261075723;-75
2022/03/07 09:03:52;;;;;;;;;0.00;0.00;;;;;;;;2;288085594;288085594;-75
2022/03/07 09:12:08;;;;;;;;;0.00;0.00;;;;;;;;2;261075542;261075542;-75
2022/03/07 09:21:35;;;;;;;;;0.00;0.00;;;;;;;;2;288082095;288082095;-75
2022/03/07 09:29:51;;;;;;;;;0.00;0.00;;;;;;;;2;261078767;261078767;-75
2022/03/07 09:39:18;;;;;;;;;0.00;0.00;;;;;;;;2;288083667;288083667;-75
2022/03/07 09:47:36;;;;;;;;;0.00;0.00;;;;;;;;2;261077656;261077656;-76
2022/03/07 09:57:03;;;;;;;;;0.00;0.00;;;;;;;;2;288084858;288084858;-75
2022/03/07 10:05:19;;;;;;;;;0.00;0.00;;;;;;;;2;261078777;261078777;-75
2022/03/07 10:14:46;;;;;;;;;0.00;0.00;;;;;;;;2;288085196;288085196;-75
2022/03/07 10:23:02;;;;;;;;;0.00;0.00;;;;;;;;2;261078764;261078764;-75
2022/03/07 10:32:29;;;;;;;;;0.00;0.00;;;;;;;;2;288084886;288084886;-75
2022/03/07 10:40:52;;;;;;;;;0.00;0.00;;;;;;;;2;261078300;261078300;-75
2022/03/07 10:50:20;;;;;;;;;0.00;0.00;;;;;;;;2;288082943;288082943;-75
2022/03/07 10:58:44;;;;;;;;;0.00;0.00;;;;;;;;2;261076653;261076653;-75
2022/03/07 11:08:12;;;;;;;;;0.00;0.00;;;;;;;;2;288083480;288083480;-75
2022/03/07 11:16:30;;;;;;;;;0.00;0.00;;;;;;;;2;261078466;261078466;-75
2022/03/07 11:25:58;;;;;;;;;0.00;0.00;;;;;;;;2;288082838;288082838;-75
2022/03/07 11:34:13;;;;;;;;;0.00;0.00;;;;;;;;2;261077194;261077194;-75
2022/03/07 11:43:52;;;;;;;;;0.00;0.00;;;;;;;;2;288087581;288087581;-75
2022/03/07 11:52:09;;;;;;;;;0.00;0.00;;;;;;;;2;261079291;261079291;-76
2022/03/07 12:01:37;;;;;;;;;0.00;0.00;;;;;;;;2;288083235;288083235;-75
2022/03/07 12:10:03;;;;;;;;;0.00;0.00;;;;;;;;2;261078460;261078460;-75
2022/03/07 12:19:31;;;;;;;;;0.00;0.00;;;;;;;;2;288086307;288086307;-76
2022/03/07 12:27:55;;;;;;;;;0.00;0.00;;;;;;;;2;261076342;261076342;-75
2022/03/07 12:37:22;;;;;;;;;0.00;0.00;;;;;;;;2;288085445;288085445;-76
2022/03/07 12:45:45;;;;;;;;;0.00;0.00;;;;;;;;2;261076516;261076516;-76
2022/03/07 12:55:14;;;;;;;;;0.00;0.00;;;;;;;;2;288082979;288082979;-76
2022/03/07 13:03:36;;;;;;;;;0.00;0.00;;;;;;;;2;261076449;261076449;-76
2022/03/07 13:13:07;;;;;;;;;0.00;0.00;;;;;;;;2;288083415;288083415;-76
2022/03/07 13:21:22;;;;;;;;;0.00;0.00;;;;;;;;2;261076100;261076100;-76
2022/03/07 13:30:50;;;;;;;;;0.00;0.00;;;;;;;;2;288084364;288084364;-76
2022/03/07 13:39:15;;;;;;;;;0.00;0.00;;;;;;;;2;261076712;261076712;-76
2022/03/07 13:48:43;;;;;;;;;0.00;0.00;;;;;;;;2;288082724;288082724;-76
2022/03/07 13:57:07;;;;;;;;;0.00;0.00;;;;;;;;2;261077440;261077440;-76
2022/03/07 14:06:35;;;;;;;;;0.00;0.00;;;;;;;;2;288082397;288082397;-76
2022/03/07 14:15:07;;;;;;;;;0.00;0.00;;;;;;;;2;261076230;261076230;-76
2022/03/07 14:24:34;;;;;;;;;0.00;0.00;;;;;;;;2;288083245;288083245;-76
2022/03/07 14:32:50;;;;;;;;;0.00;0.00;;;;;;;;2;261077717;261077717;-76
2022/03/07 14:42:18;;;;;;;;;0.00;0.00;;;;;;;;2;288082198;288082198;-75
2022/03/07 14:50:33;;;;;;;;;0.00;0.00;;;;;;;;2;261077878;261077878;-75
2022/03/07 15:00:01;;;;;;;;;0.00;0.00;;;;;;;;2;288082325;288082325;-74
2022/03/07 15:08:16;;;;;;;;;0.00;0.00;;;;;;;;2;261075451;261075451;-74
2022/03/07 15:17:44;;;;;;;;;0.00;0.00;;;;;;;;2;288085631;288085631;-75
2022/03/07 15:25:59;;;;;;;;;0.00;0.00;;;;;;;;2;261075973;261075973;-75
2022/03/07 15:35:27;;;;;;;;;0.00;0.00;;;;;;;;2;288082266;288082266;-75
2022/03/07 15:43:45;;;;;;;;;0.00;0.00;;;;;;;;2;261076342;261076342;-75
2022/03/07 15:53:13;;;;;;;;;0.00;0.00;;;;;;;;2;288083919;288083919;-75
2022/03/07 16:01:28;;;;;;;;;0.00;0.00;;;;;;;;2;261075754;261075754;-74
2022/03/07 16:10:57;;;;;;;;;0.00;0.00;;;;;;;;2;288087783;288087783;-75
2022/03/07 16:19:15;;;;;;;;;0.00;0.00;;;;;;;;2;261079324;261079324;-76
2022/03/07 16:28:43;;;;;;;;;0.00;0.00;;;;;;;;2;288086658;288086658;-75
2022/03/07 16:36:58;;;;;;;;;0.00;0.00;;;;;;;;2;261076642;261076642;-74
2022/03/07 16:46:28;;;;;;;;;0.00;0.00;;;;;;;;2;288085223;288085223;-74
2022/03/07 16:54:43;;;;;;;;;0.00;0.00;;;;;;;;2;261080748;261080748;-73
2022/03/07 17:04:11;;;;;;;;;0.00;0.00;;;;;;;;2;288085924;288085924;-75
2022/03/07 17:12:27;;;;;;;;;0.00;0.00;;;;;;;;2;261077800;261077800;-75
2022/03/07 17:25:14;;;;;;;;;0.00;0.00;;;;;;;;2;288083951;288083951;-75
2022/03/07 17:33:30;;;;;;;;;0.00;0.00;;;;;;;;2;261078745;261078745;-75
2022/03/07 17:42:59;;;;;;;;;0.00;0.00;;;;;;;;2;288082057;288082057;-75
2022/03/07 17:51:14;;;;;;;;;0.00;0.00;;;;;;;;2;261078595;261078595;-77
2022/03/07 18:00:42;;;;;;;;;0.00;0.00;;;;;;;;2;288086060;288086060;-77
2022/03/07 18:08:57;;;;;;;;;0.00;0.00;;;;;;;;2;261079732;261079732;-77
2022/03/07 18:18:25;;;;;;;;;0.00;0.00;;;;;;;;2;288086351;288086351;-77
2022/03/07 18:26:42;;;;;;;;;0.00;0.00;;;;;;;;2;261075741;261075741;-77
2022/03/07 18:36:10;;;;;;;;;0.00;0.00;;;;;;;;2;288082428;288082428;-74
2022/03/07 18:44:25;;;;;;;;;0.00;0.00;;;;;;;;2;261075250;261075250;-75
2022/03/07 18:53:52;;;;;;;;;1.00;1.00;;;;;;;;2;288087383;288087383;-74
2022/03/07 19:02:09;;;;;;;;;0.00;0.00;;;;;;;;2;261079646;261079646;-76
2022/03/07 19:11:36;;;;;;;;;0.00;0.00;;;;;;;;2;288085208;288085208;-76
2022/03/07 19:19:52;;;;;;;;;0.00;0.00;;;;;;;;2;261078173;261078173;-77
2022/03/07 19:29:19;;;;;;;;;0.00;0.00;;;;;;;;2;288082074;288082074;-77
2022/03/07 19:37:37;;;;;;;;;0.00;0.00;;;;;;;;2;261078062;261078062;-78
2022/03/07 19:47:05;;;;;;;;;0.00;0.00;;;;;;;;2;288087232;288087232;-77
2022/03/07 19:55:20;;;;;;;;;0.00;0.00;;;;;;;;2;261077329;261077329;-77
2022/03/07 20:04:48;;;;;;;;;39.00;34.50;;;;;;;;2;288084869;288084869;-76
2022/03/07 20:13:03;;;;;;;;;0.00;0.00;;;;;;;;2;261077889;261077889;-76
2022/03/07 20:22:31;;;;;;;;;35.50;30.00;;;;;;;;2;288085674;288085674;-78
2022/03/07 20:30:46;;;;;;;;;60.50;58.50;;;;;;;;2;261074661;261074661;-78
2022/03/07 20:40:14;;;;;;;;;62.00;56.50;;;;;;;;2;288082259;288082259;-78
2022/03/07 20:48:29;;;;;;;;;3.50;3.50;;;;;;;;2;261078039;261078039;-78
2022/03/07 20:57:57;;;;;;;;;0.00;0.00;;;;;;;;2;288086057;288086057;-78
2022/03/07 21:06:12;;;;;;;;;30.00;25.50;;;;;;;;2;261076580;261076580;-77
2022/03/07 21:15:40;;;;;;;;;42.50;38.50;;;;;;;;2;288082202;288082202;-79
2022/03/07 21:24:03;;;;;;;;;2.00;2.00;;;;;;;;2;261079220;261079220;-78
2022/03/07 21:33:30;;;;;;;;;74.50;73.00;;;;;;;;2;288082429;288082429;-78
2022/03/07 21:41:46;;;;;;;;;0.00;0.00;;;;;;;;2;261078047;261078047;-80
2022/03/07 21:51:14;;;;;;;;;47.50;46.50;;;;;;;;2;288084313;288084313;-79
2022/03/07 21:59:29;;;;;;;;;190.50;190.50;;;;;;;;2;261074626;261074626;-79
2022/03/07 22:08:57;;;;;;;;;174.50;174.50;;;;;;;;2;288082734;288082734;-79
2022/03/07 22:17:12;;;;;;;;;120.50;120.50;;;;;;;;2;261078328;261078328;-78
2022/03/07 22:26:40;;;;;;;;;184.00;184.00;;;;;;;;2;288086568;288086568;-76
2022/03/07 22:34:56;;;;;;;;;142.00;141.00;;;;;;;;2;261077694;261077694;-76
2022/03/07 22:44:23;;;;;;;;;199.00;199.00;;;;;;;;2;288085812;288085812;-76
2022/03/07 22:52:39;;;;;;;;;129.50;129.50;;;;;;;;2;261074250;261074250;-76
2022/03/07 23:02:06;;;;;;;;;211.00;211.00;;;;;;;;2;288085648;288085648;-76
2022/03/07 23:10:22;;;;;;;;;117.00;117.00;;;;;;;;2;261076359;261076359;-74
2022/03/07 23:19:50;;;;;;;;;148.00;148.00;;;;;;;;2;288086609;288086609;-74
2022/03/07 23:28:06;;;;;;;;;183.00;183.00;;;;;;;;2;261079483;261079483;-75
2022/03/07 23:37:34;;;;;;;;;41.00;39.00;;;;;;;;2;288084171;288084171;-75
2022/03/07 23:45:49;;;;;;;;;27.50;23.00;;;;;;;;2;261075812;261075812;-75
2022/03/07 23:55:17;;;;;;;;;56.00;56.00;;;;;;;;2;288083801;288083801;-75
